Sterling, Idaho
Current Conditions -  °F | °C
As of 7:53 AM on Wednesday 22 Oct 2014 (Local Time) from KPIH Reporting Station
Clear Clear  
Wind Chill: -4°   Ceiling: Unl
Heat Index: -4°   Visibility: 10mi
Dew Point: -4°   Wind: 3mph
Humidity: 96%   Direction: 270°W
Pressure: 30.19"   Gusts: NA
Location:  43.1849°N, 112.825°W
Report Text: KPIH 221353Z 27003KT 10SM CLR M04/M04 A3019 RMK AO2 SLP234 T10391044
Loading
Personal Weather Stations






























Interactive Weather Map
Tropical Storm Tracking
New forecast layout! Learn more

10-Day Weather Forecast

Advertisements
Track Severe Weather on mobile